createdAt,value
2022-08-30T00:02:31.288Z,100.00
2022-08-30T00:05:44.109Z,100.00
2022-08-30T00:08:57.370Z,100.00
2022-08-30T00:12:10.496Z,100.00
2022-08-30T00:15:23.812Z,100.00
2022-08-30T00:18:35.972Z,100.00
2022-08-30T00:21:48.262Z,100.00
2022-08-30T00:25:00.851Z,100.00
2022-08-30T00:28:13.289Z,100.00
2022-08-30T00:31:25.267Z,100.00
2022-08-30T00:34:37.431Z,100.00
2022-08-30T00:37:49.513Z,100.00
2022-08-30T00:41:01.822Z,100.00
2022-08-30T00:44:13.995Z,100.00
2022-08-30T00:47:26.135Z,100.00
2022-08-30T00:50:44.963Z,100.00
2022-08-30T00:53:57.461Z,100.00
2022-08-30T00:57:10.715Z,100.00
2022-08-30T01:00:24.615Z,100.00
2022-08-30T01:03:47.983Z,100.00
2022-08-30T01:07:01.074Z,100.00
2022-08-30T01:10:16.985Z,100.00
2022-08-30T01:13:31.582Z,100.00
2022-08-30T01:16:46.316Z,100.00
2022-08-30T01:20:03.681Z,100.00
2022-08-30T01:23:19.745Z,100.00
2022-08-30T01:26:42.565Z,100.00
2022-08-30T01:29:55.514Z,100.00
2022-08-30T01:33:11.013Z,100.00
2022-08-30T01:36:26.935Z,100.00
2022-08-30T01:39:39.867Z,100.00
2022-08-30T01:42:51.773Z,100.00
2022-08-30T01:46:03.672Z,100.00
2022-08-30T01:49:27.281Z,100.00
2022-08-30T01:56:13.833Z,100.00
2022-08-30T01:59:25.776Z,100.00
2022-08-30T02:02:37.905Z,100.00
2022-08-30T02:05:49.777Z,100.00
2022-08-30T02:09:02.027Z,100.00
2022-08-30T02:12:16.187Z,100.00
2022-08-30T02:15:28.415Z,100.00
2022-08-30T02:18:51.609Z,100.00
2022-08-30T02:22:03.613Z,100.00
2022-08-30T02:25:23.865Z,100.00
2022-08-30T02:28:42.797Z,100.00
2022-08-30T02:32:01.205Z,100.00
2022-08-30T02:35:15.333Z,100.00
2022-08-30T02:38:29.835Z,100.00
2022-08-30T02:41:42.410Z,100.00
2022-08-30T02:44:54.637Z,100.00
2022-08-30T02:48:06.767Z,100.00
2022-08-30T02:51:20.979Z,100.00
2022-08-30T02:54:33.390Z,100.00
2022-08-30T02:57:45.591Z,100.00
2022-08-30T03:00:57.665Z,100.00
2022-08-30T03:04:10.215Z,100.00
2022-08-30T03:07:22.752Z,100.00
2022-08-30T03:10:36.162Z,100.00
2022-08-30T03:13:48.469Z,100.00
2022-08-30T03:17:00.423Z,100.00
2022-08-30T03:20:30.404Z,100.00
2022-08-30T03:23:42.459Z,100.00
2022-08-30T03:26:56.808Z,100.00
2022-08-30T03:30:10.848Z,100.00
2022-08-30T03:33:23.129Z,100.00
2022-08-30T03:36:35.051Z,100.00
2022-08-30T03:39:49.009Z,100.00
2022-08-30T03:43:01.124Z,100.00
2022-08-30T03:46:13.856Z,100.00
2022-08-30T03:49:38.399Z,100.00
2022-08-30T03:52:50.257Z,100.00
2022-08-30T03:56:02.421Z,100.00
2022-08-30T03:59:14.730Z,100.00
2022-08-30T04:02:27.542Z,100.00
2022-08-30T04:05:39.766Z,100.00
2022-08-30T04:08:51.765Z,100.00
2022-08-30T04:12:04.126Z,100.00
2022-08-30T04:15:18.641Z,100.00
2022-08-30T04:18:31.805Z,100.00
2022-08-30T04:21:43.615Z,100.00
2022-08-30T04:24:55.973Z,100.00
2022-08-30T04:28:16.721Z,100.00
2022-08-30T04:31:29.245Z,100.00
2022-08-30T04:34:41.310Z,100.00
2022-08-30T04:37:53.192Z,100.00
2022-08-30T04:41:05.861Z,100.00
2022-08-30T04:44:19.288Z,100.00
2022-08-30T04:47:34.149Z,100.00
2022-08-30T04:50:48.182Z,100.00
2022-08-30T04:54:08.813Z,100.00
2022-08-30T04:57:20.975Z,100.00
2022-08-30T05:00:43.095Z,100.00
2022-08-30T05:03:56.266Z,100.00
2022-08-30T05:07:08.137Z,100.00
2022-08-30T05:10:20.216Z,100.00
2022-08-30T05:13:35.165Z,100.00
2022-08-30T05:16:57.218Z,100.00
2022-08-30T05:20:12.275Z,100.00
2022-08-30T05:23:24.382Z,100.00
2022-08-30T05:26:42.357Z,100.00
2022-08-30T05:29:54.608Z,100.00
2022-08-30T05:33:07.706Z,100.00
2022-08-30T05:36:21.924Z,100.00
2022-08-30T05:39:51.428Z,100.00
2022-08-30T05:42:48.009Z,100.00
2022-08-30T05:46:08.559Z,100.00
2022-08-30T05:49:21.285Z,100.00
2022-08-30T05:52:33.226Z,100.00
2022-08-30T05:55:46.847Z,97.72
2022-08-30T05:58:59.567Z,96.93
2022-08-30T06:02:11.762Z,96.86
2022-08-30T06:05:24.098Z,94.10
2022-08-30T06:08:39.329Z,91.27
2022-08-30T06:11:51.896Z,88.69
2022-08-30T06:15:04.423Z,86.63
2022-08-30T06:21:58.342Z,83.70
2022-08-30T06:25:16.361Z,83.32
2022-08-30T06:28:28.489Z,80.02
2022-08-30T06:31:40.607Z,78.00
2022-08-30T06:35:00.293Z,74.83
2022-08-30T06:38:12.514Z,74.21
2022-08-30T06:41:27.831Z,72.04
2022-08-30T06:44:39.756Z,71.69
2022-08-30T06:47:54.703Z,70.64
2022-08-30T06:51:07.638Z,70.67
2022-08-30T06:54:19.685Z,72.83
2022-08-30T06:57:32.193Z,73.35
2022-08-30T07:00:44.230Z,75.13
2022-08-30T07:03:57.023Z,76.10
2022-08-30T07:07:09.083Z,77.30
2022-08-30T07:10:22.525Z,79.91
2022-08-30T07:13:34.577Z,76.53
2022-08-30T07:16:47.555Z,78.10
2022-08-30T07:20:01.787Z,76.29
2022-08-30T07:23:14.465Z,74.45
2022-08-30T07:26:30.385Z,74.59
2022-08-30T07:29:43.486Z,73.90
2022-08-30T07:32:55.657Z,74.17
2022-08-30T07:36:09.193Z,74.79
2022-08-30T07:39:24.261Z,75.82
2022-08-30T07:42:36.250Z,75.47
2022-08-30T07:45:48.571Z,76.11
2022-08-30T07:49:04.175Z,76.55
2022-08-30T07:52:16.777Z,77.38
2022-08-30T07:55:29.362Z,78.04
2022-08-30T07:58:42.097Z,75.84
2022-08-30T08:01:54.350Z,76.82
2022-08-30T08:05:08.318Z,77.71
2022-08-30T08:08:21.494Z,77.33
2022-08-30T08:11:34.108Z,75.56
2022-08-30T08:14:46.552Z,74.13
2022-08-30T08:17:58.774Z,73.18
2022-08-30T08:21:11.785Z,71.54
2022-08-30T08:24:23.733Z,70.62
2022-08-30T08:27:35.606Z,69.90
2022-08-30T08:30:48.346Z,70.28
2022-08-30T08:37:13.637Z,65.84
2022-08-30T08:40:27.422Z,66.66
2022-08-30T08:43:42.470Z,64.54
2022-08-30T08:46:59.954Z,63.02
2022-08-30T08:50:18.560Z,64.68
2022-08-30T08:53:47.863Z,62.37
2022-08-30T08:56:55.041Z,64.27
2022-08-30T09:00:08.396Z,61.60
2022-08-30T09:03:22.220Z,57.37
2022-08-30T09:06:57.162Z,56.66
2022-08-30T09:10:11.209Z,54.57
2022-08-30T09:13:24.484Z,55.14
2022-08-30T09:17:11.906Z,56.49
2022-08-30T09:20:34.953Z,54.73
2022-08-30T09:23:58.097Z,56.56
2022-08-30T09:27:30.511Z,56.55
2022-08-30T09:30:46.919Z,57.13
2022-08-30T09:34:06.848Z,56.41
2022-08-30T09:37:32.118Z,58.94
2022-08-30T09:40:47.635Z,57.66
2022-08-30T09:44:19.024Z,62.12
2022-08-30T09:47:36.719Z,63.62
2022-08-30T09:50:49.284Z,64.82
2022-08-30T09:54:17.768Z,61.40
2022-08-30T09:57:34.401Z,61.37
2022-08-30T10:00:51.646Z,63.51
2022-08-30T10:04:10.359Z,64.32
2022-08-30T10:07:30.398Z,63.66
2022-08-30T10:10:48.149Z,65.71
2022-08-30T10:14:37.154Z,60.71
2022-08-30T10:17:57.189Z,56.21
2022-08-30T10:21:19.219Z,55.43
2022-08-30T10:24:35.760Z,52.84
2022-08-30T10:27:54.341Z,53.07
2022-08-30T10:31:11.865Z,51.82
2022-08-30T10:34:28.649Z,55.27
2022-08-30T10:37:45.779Z,56.49
2022-08-30T10:41:18.349Z,55.31
2022-08-30T10:44:36.198Z,54.18
2022-08-30T10:47:53.713Z,56.37
2022-08-30T10:51:11.701Z,50.52
2022-08-30T10:54:32.120Z,53.03
2022-08-30T10:57:45.445Z,56.57
2022-08-30T11:01:12.418Z,56.98
2022-08-30T11:05:17.958Z,57.94
2022-08-30T11:08:49.603Z,58.44
2022-08-30T11:12:25.006Z,54.58
2022-08-30T11:15:42.355Z,56.84
2022-08-30T11:18:57.636Z,56.33
2022-08-30T11:22:22.065Z,59.72
2022-08-30T11:26:00.755Z,60.13
2022-08-30T11:29:14.337Z,61.46
2022-08-30T11:33:07.970Z,61.44
2022-08-30T11:36:37.465Z,64.10
2022-08-30T11:40:03.936Z,62.98
2022-08-30T11:43:57.323Z,66.15
2022-08-30T11:47:25.561Z,69.46
2022-08-30T11:50:47.784Z,66.39
2022-08-30T11:54:02.944Z,68.64
2022-08-30T11:57:22.963Z,65.24
2022-08-30T12:00:41.057Z,66.36
2022-08-30T12:04:02.511Z,69.92
2022-08-30T12:07:16.797Z,70.83
2022-08-30T12:10:42.510Z,71.69
2022-08-30T12:14:07.195Z,73.76
2022-08-30T12:17:55.209Z,70.47
2022-08-30T12:21:43.691Z,67.84
2022-08-30T12:24:51.769Z,63.89
2022-08-30T12:28:21.715Z,62.21
2022-08-30T12:31:35.166Z,65.21
2022-08-30T12:34:59.400Z,66.34
2022-08-30T12:38:19.092Z,66.64
2022-08-30T12:41:33.070Z,66.93
2022-08-30T12:44:46.386Z,64.44
2022-08-30T12:48:03.500Z,68.35
2022-08-30T12:51:32.559Z,65.15
2022-08-30T12:54:48.258Z,63.62
2022-08-30T12:58:13.355Z,59.28
2022-08-30T13:01:41.388Z,59.47
2022-08-30T13:04:55.484Z,60.56
2022-08-30T13:08:21.490Z,66.33
2022-08-30T13:11:35.099Z,62.86
2022-08-30T13:14:49.987Z,67.60
2022-08-30T13:18:31.815Z,68.73
2022-08-30T13:21:51.212Z,62.90
2022-08-30T13:25:05.402Z,68.02
2022-08-30T13:28:17.590Z,67.83
2022-08-30T13:31:30.297Z,67.06
2022-08-30T13:34:42.856Z,65.67
2022-08-30T13:37:55.767Z,63.30
2022-08-30T13:41:08.020Z,63.45
2022-08-30T13:44:22.272Z,62.13
2022-08-30T13:47:36.250Z,65.41
2022-08-30T13:50:49.293Z,65.51
2022-08-30T13:54:01.421Z,69.35
2022-08-30T14:00:54.746Z,67.37
2022-08-30T14:04:16.619Z,67.18
2022-08-30T14:07:31.178Z,67.68
2022-08-30T14:10:56.729Z,68.86
2022-08-30T14:14:28.575Z,69.62
2022-08-30T14:21:03.650Z,70.18
2022-08-30T14:24:20.295Z,70.01
2022-08-30T14:27:34.523Z,70.68
2022-08-30T14:30:46.840Z,69.12
2022-08-30T14:34:01.241Z,69.97
2022-08-30T14:41:15.406Z,68.19
2022-08-30T14:44:55.755Z,68.77
2022-08-30T14:55:31.727Z,70.19
2022-08-30T14:58:53.081Z,69.04
2022-08-30T15:05:48.080Z,65.72
2022-08-30T15:09:11.265Z,68.26
2022-08-30T15:12:31.853Z,67.98
2022-08-30T15:23:26.048Z,66.81
2022-08-30T15:42:19.532Z,69.78
2022-08-30T15:49:16.394Z,73.40
2022-08-30T15:52:30.598Z,75.56
2022-08-30T15:55:42.895Z,73.78
2022-08-30T16:02:35.786Z,76.24
2022-08-30T16:05:48.322Z,74.86
2022-08-30T16:09:04.070Z,75.28
2022-08-30T16:12:23.553Z,74.91
2022-08-30T16:15:32.233Z,73.69
2022-08-30T16:18:45.105Z,75.01
2022-08-30T16:21:59.384Z,73.19
2022-08-30T16:25:13.430Z,73.37
2022-08-30T16:28:25.516Z,74.52
2022-08-30T16:31:39.934Z,75.36
2022-08-30T16:34:52.009Z,76.23
2022-08-30T16:38:04.031Z,77.07
2022-08-30T16:41:21.552Z,75.66
2022-08-30T16:44:34.893Z,76.93
2022-08-30T16:47:46.942Z,75.69
2022-08-30T16:51:01.004Z,75.03
2022-08-30T16:54:14.995Z,73.44
2022-08-30T16:57:27.184Z,73.59
2022-08-30T17:00:42.436Z,74.50
2022-08-30T17:03:57.347Z,75.70
2022-08-30T17:07:13.508Z,75.95
2022-08-30T17:10:26.398Z,76.80
2022-08-30T17:13:39.138Z,77.29
2022-08-30T17:16:51.299Z,77.63
2022-08-30T17:20:04.265Z,78.89
2022-08-30T17:23:16.630Z,79.47
2022-08-30T17:26:28.728Z,79.91
2022-08-30T17:29:40.835Z,80.61
2022-08-30T17:32:53.603Z,80.81
2022-08-30T17:36:05.818Z,82.11
2022-08-30T17:39:18.222Z,82.61
2022-08-30T17:42:30.368Z,81.23
2022-08-30T17:45:43.204Z,82.00
2022-08-30T17:48:57.741Z,83.22
2022-08-30T17:52:12.418Z,82.38
2022-08-30T17:55:24.893Z,82.50
2022-08-30T17:58:37.135Z,84.64
2022-08-30T18:01:51.253Z,85.57
2022-08-30T18:05:04.808Z,87.31
2022-08-30T18:08:17.341Z,86.02
2022-08-30T18:11:29.897Z,87.05
2022-08-30T18:14:43.640Z,87.26
2022-08-30T18:17:55.654Z,87.90
2022-08-30T18:21:07.909Z,84.20
2022-08-30T18:24:23.697Z,86.09
2022-08-30T18:27:39.190Z,84.33
2022-08-30T18:30:51.568Z,85.16
2022-08-30T18:34:04.733Z,85.51
2022-08-30T18:37:17.966Z,84.75
2022-08-30T18:40:30.076Z,85.71
2022-08-30T18:43:43.353Z,85.08
2022-08-30T18:46:57.361Z,84.42
2022-08-30T18:50:10.885Z,86.06
2022-08-30T18:53:28.720Z,86.17
2022-08-30T18:56:39.101Z,88.02
2022-08-30T18:59:51.876Z,88.55
2022-08-30T19:03:04.530Z,89.44
2022-08-30T19:06:21.573Z,90.92
2022-08-30T19:09:32.045Z,90.48
2022-08-30T19:12:44.050Z,90.95
2022-08-30T19:15:56.468Z,91.54
2022-08-30T19:19:10.168Z,93.24
2022-08-30T19:22:27.544Z,93.17
2022-08-30T19:25:40.067Z,93.95
2022-08-30T19:28:52.256Z,92.84
2022-08-30T19:32:04.413Z,93.49
2022-08-30T19:35:17.834Z,93.81
2022-08-30T19:38:32.668Z,94.04
2022-08-30T19:41:45.296Z,95.37
2022-08-30T19:44:59.295Z,94.57
2022-08-30T19:48:13.527Z,94.90
2022-08-30T19:51:25.624Z,94.64
2022-08-30T19:54:38.864Z,94.41
2022-08-30T19:57:53.085Z,93.86
2022-08-30T20:01:10.904Z,94.28
2022-08-30T20:04:22.801Z,95.31
2022-08-30T20:07:36.676Z,96.70
2022-08-30T20:10:50.822Z,95.88
2022-08-30T20:14:04.761Z,94.68
2022-08-30T20:17:16.967Z,93.51
2022-08-30T20:20:30.162Z,94.71
2022-08-30T20:23:43.018Z,94.30
2022-08-30T20:26:57.474Z,95.07
2022-08-30T20:30:10.243Z,94.92
2022-08-30T20:33:22.531Z,95.54
2022-08-30T20:36:34.599Z,95.75
2022-08-30T20:39:46.966Z,95.78
2022-08-30T20:42:59.144Z,95.36
2022-08-30T20:46:18.194Z,99.43
2022-08-30T20:49:30.340Z,99.03
2022-08-30T20:52:42.419Z,98.59
2022-08-30T20:55:55.170Z,97.27
2022-08-30T20:59:08.168Z,98.17
2022-08-30T21:02:20.283Z,100.00
2022-08-30T21:05:33.006Z,99.30
2022-08-30T21:08:45.194Z,98.77
2022-08-30T21:11:57.901Z,99.03
2022-08-30T21:15:34.173Z,99.08
2022-08-30T21:18:27.358Z,100.00
2022-08-30T21:21:39.486Z,99.32
2022-08-30T21:24:51.697Z,100.00
2022-08-30T21:28:04.287Z,100.00
2022-08-30T21:31:19.127Z,100.00
2022-08-30T21:34:33.565Z,100.00
2022-08-30T21:37:45.632Z,100.00
2022-08-30T21:40:58.449Z,100.00
2022-08-30T21:44:14.519Z,100.00
2022-08-30T21:47:26.511Z,100.00
2022-08-30T21:50:38.625Z,100.00
2022-08-30T21:53:50.862Z,100.00
2022-08-30T21:57:07.682Z,100.00
2022-08-30T22:00:22.963Z,100.00
2022-08-30T22:03:37.094Z,100.00
2022-08-30T22:06:53.915Z,100.00
2022-08-30T22:10:04.754Z,100.00
2022-08-30T22:13:17.730Z,100.00
2022-08-30T22:16:31.619Z,100.00
2022-08-30T22:19:44.520Z,100.00
2022-08-30T22:22:57.276Z,100.00
2022-08-30T22:26:11.729Z,100.00
2022-08-30T22:29:24.563Z,100.00
2022-08-30T22:32:38.307Z,100.00
2022-08-30T22:35:51.869Z,100.00
2022-08-30T22:39:06.478Z,100.00
2022-08-30T22:42:19.885Z,100.00
2022-08-30T22:45:32.713Z,100.00
2022-08-30T22:48:48.094Z,100.00
2022-08-30T22:52:01.120Z,100.00
2022-08-30T23:07:50.301Z,100.00
2022-08-30T23:11:02.775Z,100.00
2022-08-30T23:14:14.839Z,100.00
2022-08-30T23:17:27.355Z,100.00
2022-08-30T23:20:41.429Z,100.00
2022-08-30T23:24:08.319Z,100.00
2022-08-30T23:27:34.875Z,100.00
2022-08-30T23:31:01.613Z,100.00
2022-08-30T23:34:27.883Z,100.00
2022-08-30T23:37:54.491Z,100.00
2022-08-30T23:41:20.991Z,100.00
2022-08-30T23:44:47.416Z,100.00
2022-08-30T23:48:13.602Z,100.00
2022-08-30T23:51:42.357Z,100.00
2022-08-30T23:55:08.294Z,100.00
2022-08-30T23:58:35.557Z,100.00
